Terminal Aerodrome Forecast
Issued by NWS

Home | Current Version | Previous Version | Text Only | Print | Product List | Glossary On
Versions: 1 2 3 4 5 6 7 8 9 10 11 12 13 14 15
000
FTUS43 KAPX 312329
TAFAPN
TAF
KAPN 312329Z 0100/0124 36015G24KT P6SM OVC028
     FM010700 36010G17KT P6SM BKN024
     FM011300 36010G18KT P6SM FEW025
     FM011900 35009KT P6SM SKC=

USA.gov is the U.S. government's official web portal to all federal, state and local government web resources and services.